createdAt,value
2022-10-11T00:01:18.851Z,9.38
2022-10-11T00:04:20.993Z,9.36
2022-10-11T00:07:23.339Z,9.32
2022-10-11T00:10:25.715Z,9.40
2022-10-11T00:13:28.269Z,9.30
2022-10-11T00:16:30.280Z,9.24
2022-10-11T00:19:32.460Z,9.08
2022-10-11T00:22:36.030Z,8.96
2022-10-11T00:25:39.219Z,9.01
2022-10-11T00:28:42.360Z,9.02
2022-10-11T00:31:44.798Z,9.00
2022-10-11T00:34:46.776Z,8.86
2022-10-11T00:37:49.173Z,8.89
2022-10-11T00:40:51.403Z,8.81
2022-10-11T00:44:15.445Z,8.63
2022-10-11T00:47:19.943Z,8.56
2022-10-11T00:50:23.758Z,8.52
2022-10-11T00:53:26.354Z,8.55
2022-10-11T00:56:34.338Z,8.56
2022-10-11T00:59:40.425Z,8.52
2022-10-11T01:02:43.257Z,8.63
2022-10-11T01:05:46.242Z,8.64
2022-10-11T01:08:48.700Z,8.59
2022-10-11T01:11:52.469Z,8.70
2022-10-11T01:15:13.235Z,8.69
2022-10-11T01:18:44.103Z,8.81
2022-10-11T01:22:06.540Z,8.72
2022-10-11T01:25:32.791Z,8.81
2022-10-11T01:28:35.129Z,8.79
2022-10-11T01:32:00.547Z,8.82
2022-10-11T01:35:07.646Z,8.82
2022-10-11T01:38:33.191Z,8.89
2022-10-11T01:41:41.665Z,8.92
2022-10-11T01:44:47.346Z,8.98
2022-10-11T01:48:01.838Z,9.02
2022-10-11T01:51:04.117Z,9.00
2022-10-11T01:54:19.576Z,9.01
2022-10-11T01:57:41.755Z,9.11
2022-10-11T02:00:55.468Z,9.07
2022-10-11T02:04:05.417Z,9.08
2022-10-11T02:07:12.302Z,9.04
2022-10-11T02:10:24.990Z,9.13
2022-10-11T02:13:40.132Z,9.17
2022-10-11T02:16:58.600Z,9.16
2022-10-11T02:20:04.780Z,9.12
2022-10-11T02:23:14.022Z,9.18
2022-10-11T02:26:17.238Z,9.11
2022-10-11T02:29:20.718Z,9.12
2022-10-11T02:32:24.590Z,9.14
2022-10-11T02:35:29.935Z,9.09
2022-10-11T02:38:40.389Z,9.15
2022-10-11T02:41:43.243Z,9.10
2022-10-11T02:45:10.316Z,9.04
2022-10-11T02:48:12.796Z,9.03
2022-10-11T02:51:15.195Z,9.09
2022-10-11T02:54:17.442Z,9.09
2022-10-11T02:57:19.817Z,9.02
2022-10-11T03:00:21.870Z,9.02
2022-10-11T03:03:24.050Z,9.08
2022-10-11T03:06:26.057Z,9.05
2022-10-11T03:09:28.276Z,9.07
2022-10-11T03:12:30.401Z,9.11
2022-10-11T03:15:32.964Z,9.02
2022-10-11T03:18:35.463Z,9.08
2022-10-11T03:21:37.966Z,9.11
2022-10-11T03:24:40.119Z,9.09
2022-10-11T03:27:42.407Z,9.13
2022-10-11T03:30:47.728Z,9.08
2022-10-11T03:33:50.250Z,9.11
2022-10-11T03:36:52.225Z,9.14
2022-10-11T03:39:54.547Z,9.11
2022-10-11T03:42:57.404Z,9.06
2022-10-11T03:45:59.681Z,9.12
2022-10-11T03:49:02.105Z,9.07
2022-10-11T03:52:04.438Z,8.98
2022-10-11T03:55:07.321Z,8.97
2022-10-11T03:58:09.659Z,9.03
2022-10-11T04:01:11.670Z,9.00
2022-10-11T04:04:13.834Z,8.96
2022-10-11T04:07:15.954Z,8.82
2022-10-11T04:10:18.234Z,8.83
2022-10-11T04:13:20.295Z,8.78
2022-10-11T04:16:22.694Z,8.71
2022-10-11T04:19:24.845Z,8.57
2022-10-11T04:22:27.290Z,8.57
2022-10-11T04:25:29.488Z,8.50
2022-10-11T04:28:31.893Z,8.37
2022-10-11T04:31:33.993Z,8.23
2022-10-11T04:34:36.234Z,8.27
2022-10-11T04:37:38.280Z,8.21
2022-10-11T04:40:40.550Z,8.03
2022-10-11T04:43:42.954Z,8.00
2022-10-11T04:46:45.214Z,7.90
2022-10-11T04:49:47.278Z,7.89
2022-10-11T04:52:49.521Z,7.78
2022-10-11T04:56:02.034Z,7.77
2022-10-11T04:59:04.502Z,7.69
2022-10-11T05:02:06.569Z,7.63
2022-10-11T05:05:09.487Z,7.60
2022-10-11T05:08:11.802Z,7.53
2022-10-11T05:11:16.229Z,7.47
2022-10-11T05:14:18.592Z,7.40
2022-10-11T05:17:20.829Z,7.36
2022-10-11T05:20:23.308Z,7.34
2022-10-11T05:23:25.682Z,7.27
2022-10-11T05:26:29.022Z,7.24
2022-10-11T05:29:31.294Z,7.23
2022-10-11T05:32:33.709Z,7.30
2022-10-11T05:35:36.027Z,7.34
2022-10-11T05:38:38.428Z,7.36
2022-10-11T05:41:40.645Z,7.35
2022-10-11T05:44:42.967Z,7.37
2022-10-11T05:47:45.177Z,7.42
2022-10-11T05:50:47.615Z,7.55
2022-10-11T05:53:49.981Z,7.67
2022-10-11T05:56:52.042Z,7.74
2022-10-11T05:59:54.318Z,7.92
2022-10-11T06:02:56.395Z,7.98
2022-10-11T06:06:02.416Z,8.23
2022-10-11T06:09:04.504Z,8.42
2022-10-11T06:12:06.855Z,8.65
2022-10-11T06:15:10.842Z,8.88
2022-10-11T06:18:13.835Z,9.01
2022-10-11T06:21:15.953Z,9.20
2022-10-11T06:24:18.230Z,9.38
2022-10-11T06:27:20.349Z,9.56
2022-10-11T06:30:22.621Z,9.70
2022-10-11T06:33:25.190Z,9.83
2022-10-11T06:36:27.879Z,9.93
2022-10-11T06:39:29.990Z,9.97
2022-10-11T06:42:32.156Z,10.17
2022-10-11T06:45:34.176Z,10.22
2022-10-11T06:48:40.321Z,10.26
2022-10-11T06:51:42.409Z,10.38
2022-10-11T06:54:45.675Z,10.44
2022-10-11T06:57:47.776Z,10.50
2022-10-11T07:00:50.008Z,10.50
2022-10-11T07:03:53.744Z,10.56
2022-10-11T07:06:56.032Z,10.63
2022-10-11T07:09:58.434Z,10.66
2022-10-11T07:13:00.630Z,10.87
2022-10-11T07:16:05.146Z,10.89
2022-10-11T07:19:07.787Z,11.06
2022-10-11T07:22:09.960Z,11.13
2022-10-11T07:25:12.191Z,11.25
2022-10-11T07:28:14.428Z,11.38
2022-10-11T07:31:23.201Z,11.57
2022-10-11T07:34:25.357Z,11.68
2022-10-11T07:37:27.656Z,11.74
2022-10-11T07:40:29.736Z,11.77
2022-10-11T07:43:32.452Z,11.91
2022-10-11T07:46:34.542Z,11.98
2022-10-11T07:49:36.829Z,12.20
2022-10-11T07:52:39.117Z,12.40
2022-10-11T07:55:42.298Z,12.69
2022-10-11T07:58:44.669Z,12.90
2022-10-11T08:01:49.936Z,12.82
2022-10-11T08:04:52.154Z,12.87
2022-10-11T08:07:54.440Z,12.79
2022-10-11T08:10:57.072Z,12.79
2022-10-11T08:14:00.118Z,13.04
2022-10-11T08:17:02.479Z,13.18
2022-10-11T08:20:05.244Z,13.36
2022-10-11T08:23:09.652Z,13.26
2022-10-11T08:26:12.466Z,13.36
2022-10-11T08:29:14.613Z,13.44
2022-10-11T08:32:16.833Z,13.65
2022-10-11T08:35:18.894Z,13.53
2022-10-11T08:38:21.467Z,13.54
2022-10-11T08:41:29.499Z,13.67
2022-10-11T08:45:09.992Z,13.74
2022-10-11T08:48:20.925Z,13.88
2022-10-11T08:51:30.747Z,13.89
2022-10-11T08:54:47.211Z,13.89
2022-10-11T08:57:54.107Z,13.81
2022-10-11T09:00:56.980Z,13.90
2022-10-11T09:04:00.208Z,14.09
2022-10-11T09:07:16.171Z,14.04
2022-10-11T09:10:46.010Z,14.43
2022-10-11T09:14:12.697Z,14.37
2022-10-11T09:17:42.065Z,14.25
2022-10-11T09:21:14.969Z,14.32
2022-10-11T09:24:19.896Z,14.20
2022-10-11T09:28:02.218Z,14.05
2022-10-11T09:31:09.802Z,14.57
2022-10-11T09:34:14.221Z,15.03
2022-10-11T09:37:35.146Z,15.33
2022-10-11T09:41:05.587Z,15.18
2022-10-11T09:44:08.626Z,15.23
2022-10-11T09:47:15.540Z,15.39
2022-10-11T09:50:21.545Z,15.29
2022-10-11T09:53:56.640Z,15.04
2022-10-11T09:56:59.105Z,15.46
2022-10-11T10:00:07.616Z,15.80
2022-10-11T10:03:29.656Z,15.93
2022-10-11T10:06:32.013Z,15.89
2022-10-11T10:09:34.240Z,15.60
2022-10-11T10:12:36.284Z,16.24
2022-10-11T10:15:46.033Z,16.58
2022-10-11T10:18:52.803Z,16.90
2022-10-11T10:21:55.926Z,16.63
2022-10-11T10:25:00.644Z,16.66
2022-10-11T10:28:05.296Z,16.56
2022-10-11T10:31:22.205Z,16.80
2022-10-11T10:34:31.600Z,17.23
2022-10-11T10:37:43.595Z,17.39
2022-10-11T10:40:54.098Z,17.43
2022-10-11T10:43:57.627Z,17.72
2022-10-11T10:47:19.539Z,17.85
2022-10-11T10:50:27.856Z,17.30
2022-10-11T10:54:12.025Z,16.92
2022-10-11T10:57:20.087Z,16.73
2022-10-11T11:00:23.669Z,16.91
2022-10-11T11:03:45.925Z,17.15
2022-10-11T11:07:02.710Z,17.01
2022-10-11T11:10:11.338Z,17.02
2022-10-11T11:13:41.447Z,16.85
2022-10-11T11:17:18.790Z,16.86
2022-10-11T11:20:32.926Z,17.12
2022-10-11T11:23:45.726Z,17.72
2022-10-11T11:27:06.138Z,18.15
2022-10-11T11:30:34.337Z,18.34
2022-10-11T11:33:48.537Z,18.25
2022-10-11T11:37:00.862Z,17.63
2022-10-11T11:40:41.982Z,17.65
2022-10-11T11:44:02.024Z,17.33
2022-10-11T11:47:17.782Z,17.28
2022-10-11T11:50:27.935Z,17.10
2022-10-11T11:53:52.421Z,16.86
2022-10-11T11:57:00.991Z,16.83
2022-10-11T12:00:14.780Z,17.41
2022-10-11T12:03:24.288Z,17.65
2022-10-11T12:06:30.242Z,17.67
2022-10-11T12:09:36.713Z,17.71
2022-10-11T12:12:39.322Z,17.94
2022-10-11T12:15:59.192Z,18.03
2022-10-11T12:19:03.379Z,18.05
2022-10-11T12:22:30.005Z,18.07
2022-10-11T12:25:36.532Z,18.14
2022-10-11T12:28:41.889Z,18.20
2022-10-11T12:31:46.352Z,18.16
2022-10-11T12:34:48.460Z,18.02
2022-10-11T12:37:51.785Z,17.62
2022-10-11T12:41:25.607Z,17.83
2022-10-11T12:44:29.155Z,18.20
2022-10-11T12:48:08.385Z,17.93
2022-10-11T12:51:35.296Z,17.76
2022-10-11T12:55:23.653Z,17.87
2022-10-11T12:58:47.145Z,17.88
2022-10-11T13:01:53.152Z,17.99
2022-10-11T13:05:27.910Z,18.11
2022-10-11T13:08:35.718Z,18.02
2022-10-11T13:11:53.026Z,17.96
2022-10-11T13:15:07.035Z,17.62
2022-10-11T13:18:14.487Z,17.56
2022-10-11T13:21:32.123Z,17.75
2022-10-11T13:24:39.782Z,17.71
2022-10-11T13:27:42.028Z,17.90
2022-10-11T13:30:46.892Z,17.81
2022-10-11T13:33:49.133Z,17.50
2022-10-11T13:36:56.478Z,17.19
2022-10-11T13:39:58.744Z,16.92
2022-10-11T13:43:01.132Z,16.79
2022-10-11T13:46:05.349Z,16.69
2022-10-11T13:49:28.229Z,16.54
2022-10-11T13:52:30.225Z,16.29
2022-10-11T13:55:34.084Z,16.33
2022-10-11T13:58:40.588Z,16.21
2022-10-11T14:01:45.170Z,16.19
2022-10-11T14:04:48.690Z,15.90
2022-10-11T14:07:51.206Z,15.68
2022-10-11T14:10:57.758Z,15.69
2022-10-11T14:14:29.944Z,15.68
2022-10-11T14:17:38.875Z,15.49
2022-10-11T14:20:42.005Z,15.37
2022-10-11T14:23:44.123Z,15.59
2022-10-11T14:26:54.773Z,15.54
2022-10-11T14:30:20.257Z,15.63
2022-10-11T14:33:26.356Z,15.71
2022-10-11T14:36:28.438Z,15.85
2022-10-11T14:39:32.603Z,15.72
2022-10-11T14:42:34.626Z,15.79
2022-10-11T14:45:37.416Z,15.80
2022-10-11T14:48:56.311Z,15.85
2022-10-11T14:51:59.711Z,15.89
2022-10-11T14:55:02.340Z,15.85
2022-10-11T14:58:06.505Z,15.73
2022-10-11T15:01:16.715Z,15.70
2022-10-11T15:04:23.720Z,15.62
2022-10-11T15:07:25.812Z,15.38
2022-10-11T15:10:31.516Z,15.31
2022-10-11T15:13:33.782Z,15.05
2022-10-11T15:16:36.165Z,15.10
2022-10-11T15:19:38.333Z,15.01
2022-10-11T15:22:40.703Z,14.87
2022-10-11T15:25:43.002Z,14.76
2022-10-11T15:28:45.926Z,14.75
2022-10-11T15:31:49.324Z,14.57
2022-10-11T15:34:51.780Z,14.54
2022-10-11T15:37:56.229Z,14.31
2022-10-11T15:40:59.780Z,14.33
2022-10-11T15:44:02.105Z,14.25
2022-10-11T15:47:04.500Z,14.18
2022-10-11T15:50:23.469Z,14.16
2022-10-11T15:53:30.211Z,14.00
2022-10-11T15:56:33.906Z,13.93
2022-10-11T15:59:36.376Z,13.98
2022-10-11T16:02:38.653Z,13.95
2022-10-11T16:05:41.377Z,13.95
2022-10-11T16:08:43.574Z,13.91
2022-10-11T16:11:45.964Z,13.87
2022-10-11T16:14:48.109Z,13.75
2022-10-11T16:17:50.673Z,13.53
2022-10-11T16:20:53.044Z,13.20
2022-10-11T16:23:55.406Z,13.06
2022-10-11T16:26:57.500Z,12.91
2022-10-11T16:30:00.345Z,12.76
2022-10-11T16:33:02.478Z,12.65
2022-10-11T16:36:26.217Z,12.56
2022-10-11T16:39:28.478Z,12.44
2022-10-11T16:42:30.912Z,12.35
2022-10-11T16:45:33.851Z,12.19
2022-10-11T16:48:35.992Z,12.11
2022-10-11T16:51:38.016Z,12.00
2022-10-11T16:54:44.457Z,11.85
2022-10-11T16:57:46.582Z,11.69
2022-10-11T17:00:48.952Z,11.61
2022-10-11T17:03:52.470Z,11.45
2022-10-11T17:06:55.237Z,11.44
2022-10-11T17:09:58.298Z,11.29
2022-10-11T17:13:01.038Z,11.12
2022-10-11T17:16:03.736Z,10.97
2022-10-11T17:19:11.563Z,10.83
2022-10-11T17:22:18.045Z,10.74
2022-10-11T17:25:20.680Z,10.73
2022-10-11T17:28:22.937Z,10.70
2022-10-11T17:31:25.820Z,10.59
2022-10-11T17:34:28.071Z,10.52
2022-10-11T17:37:30.445Z,10.34
2022-10-11T17:40:32.634Z,10.11
2022-10-11T17:43:35.080Z,9.94
2022-10-11T17:46:37.875Z,9.93
2022-10-11T17:49:40.100Z,9.83
2022-10-11T17:52:42.283Z,9.73
2022-10-11T17:55:44.913Z,9.58
2022-10-11T17:58:47.163Z,9.47
2022-10-11T18:01:50.695Z,9.36
2022-10-11T18:04:52.894Z,9.26
2022-10-11T18:07:55.372Z,9.20
2022-10-11T18:10:57.562Z,9.21
2022-10-11T18:14:00.278Z,9.17
2022-10-11T18:17:02.395Z,9.10
2022-10-11T18:20:05.085Z,9.00
2022-10-11T18:23:07.105Z,8.99
2022-10-11T18:26:11.450Z,8.95
2022-10-11T18:29:13.863Z,8.96
2022-10-11T18:32:18.243Z,8.97
2022-10-11T18:35:20.406Z,8.78
2022-10-11T18:38:22.701Z,8.75
2022-10-11T18:41:30.756Z,8.65
2022-10-11T18:44:33.201Z,8.60
2022-10-11T18:47:35.153Z,8.51
2022-10-11T18:50:37.602Z,8.52
2022-10-11T18:53:40.065Z,8.48
2022-10-11T18:56:42.797Z,8.48
2022-10-11T18:59:45.108Z,8.33
2022-10-11T19:02:47.588Z,8.23
2022-10-11T19:05:49.773Z,8.14
2022-10-11T19:09:04.645Z,7.99
2022-10-11T19:12:06.750Z,7.93
2022-10-11T19:15:09.457Z,7.82
2022-10-11T19:18:13.459Z,7.78
2022-10-11T19:21:18.266Z,7.69
2022-10-11T19:24:22.972Z,7.58
2022-10-11T19:27:25.438Z,7.56
2022-10-11T19:30:27.560Z,7.52
2022-10-11T19:33:31.687Z,7.42
2022-10-11T19:36:36.850Z,7.34
2022-10-11T19:39:39.505Z,7.32
2022-10-11T19:42:41.841Z,7.20
2022-10-11T19:45:44.264Z,7.13
2022-10-11T19:48:48.219Z,7.07
2022-10-11T19:51:51.274Z,7.04
2022-10-11T19:54:53.326Z,6.97
2022-10-11T19:57:55.687Z,6.92
2022-10-11T20:01:10.159Z,6.89
2022-10-11T20:04:33.208Z,6.86
2022-10-11T20:07:35.930Z,6.87
2022-10-11T20:10:38.331Z,6.80
2022-10-11T20:13:40.544Z,6.67
2022-10-11T20:16:43.471Z,6.61
2022-10-11T20:19:45.533Z,6.57
2022-10-11T20:22:48.312Z,6.54
2022-10-11T20:26:07.005Z,6.46
2022-10-11T20:29:09.474Z,6.41
2022-10-11T20:32:11.642Z,6.33
2022-10-11T20:35:14.028Z,6.27
2022-10-11T20:38:16.075Z,6.25
2022-10-11T20:41:21.657Z,6.25
2022-10-11T20:44:23.827Z,6.22
2022-10-11T20:47:26.253Z,6.16
2022-10-11T20:50:28.247Z,6.14
2022-10-11T20:53:30.546Z,6.08
2022-10-11T20:56:33.683Z,6.07
2022-10-11T20:59:35.859Z,6.05
2022-10-11T21:02:38.546Z,6.04
2022-10-11T21:05:41.013Z,6.01
2022-10-11T21:08:42.990Z,5.96
2022-10-11T21:11:45.609Z,5.90
2022-10-11T21:14:47.608Z,5.86
2022-10-11T21:17:50.737Z,5.75
2022-10-11T21:20:52.771Z,5.74
2022-10-11T21:23:59.922Z,5.74
2022-10-11T21:27:02.321Z,5.70
2022-10-11T21:30:04.963Z,5.70
2022-10-11T21:33:07.029Z,5.63
2022-10-11T21:36:17.513Z,5.62
2022-10-11T21:39:19.525Z,5.56
2022-10-11T21:42:25.872Z,5.53
2022-10-11T21:45:30.733Z,5.48
2022-10-11T21:48:33.303Z,5.42
2022-10-11T21:51:35.315Z,5.38
2022-10-11T21:54:37.721Z,5.32
2022-10-11T21:57:42.705Z,5.27
2022-10-11T22:00:47.004Z,5.19
2022-10-11T22:03:49.553Z,5.16
2022-10-11T22:06:51.820Z,5.17
2022-10-11T22:09:53.824Z,5.14
2022-10-11T22:12:56.086Z,5.06
2022-10-11T22:16:01.460Z,5.06
2022-10-11T22:19:06.804Z,5.05
2022-10-11T22:22:08.883Z,5.03
2022-10-11T22:25:11.086Z,5.01
2022-10-11T22:28:13.170Z,5.01
2022-10-11T22:31:17.222Z,4.96
2022-10-11T22:34:19.634Z,4.91
2022-10-11T22:37:21.823Z,4.93
2022-10-11T22:40:23.805Z,4.89
2022-10-11T22:43:26.000Z,4.78
2022-10-11T22:46:28.475Z,4.84
2022-10-11T22:49:30.662Z,4.76
2022-10-11T22:52:32.766Z,4.68
2022-10-11T22:55:35.262Z,4.63
2022-10-11T22:58:37.796Z,4.55
2022-10-11T23:01:40.172Z,4.53
2022-10-11T23:04:42.221Z,4.51
2022-10-11T23:07:46.625Z,4.43
2022-10-11T23:10:48.821Z,4.45
2022-10-11T23:13:51.103Z,4.45
2022-10-11T23:16:53.484Z,4.42
2022-10-11T23:19:56.282Z,4.41
2022-10-11T23:23:01.127Z,4.36
2022-10-11T23:26:08.521Z,4.31
2022-10-11T23:29:11.040Z,4.22
2022-10-11T23:32:13.331Z,4.15
2022-10-11T23:35:15.604Z,4.16
2022-10-11T23:38:17.837Z,4.21
2022-10-11T23:41:21.067Z,4.16
2022-10-11T23:44:23.396Z,4.13
2022-10-11T23:47:25.443Z,4.12
2022-10-11T23:50:27.620Z,4.10
2022-10-11T23:53:29.656Z,4.08
2022-10-11T23:56:32.009Z,4.05
2022-10-11T23:59:34.123Z,4.07
